createdAt,value
2018-11-25T00:01:28.661Z,93.31
2018-11-25T00:06:31.064Z,92.92
2018-11-25T00:11:33.481Z,92.44
2018-11-25T00:16:35.878Z,93.05
2018-11-25T00:21:38.234Z,92.85
2018-11-25T00:26:41.582Z,92.06
2018-11-25T00:31:44.637Z,92.09
2018-11-25T00:36:47.170Z,92.12
2018-11-25T00:41:49.528Z,92.32
2018-11-25T00:46:51.909Z,92.20
2018-11-25T00:51:54.371Z,91.76
2018-11-25T00:56:56.766Z,92.15
2018-11-25T01:02:00.028Z,91.71
2018-11-25T01:07:02.418Z,92.25
2018-11-25T01:12:05.281Z,92.76
2018-11-25T01:17:07.748Z,92.17
2018-11-25T01:22:10.839Z,92.42
2018-11-25T01:27:13.200Z,92.40
2018-11-25T01:32:15.633Z,92.55
2018-11-25T01:37:17.991Z,92.08
2018-11-25T01:42:20.530Z,91.94
2018-11-25T01:47:22.970Z,92.33
2018-11-25T01:52:25.524Z,92.28
2018-11-25T01:57:27.850Z,92.37
2018-11-25T02:02:30.166Z,92.36
2018-11-25T02:07:32.807Z,91.34
2018-11-25T02:12:35.222Z,91.70
2018-11-25T02:17:37.772Z,91.81
2018-11-25T02:22:40.120Z,91.76
2018-11-25T02:27:42.465Z,91.28
2018-11-25T02:32:45.504Z,90.89
2018-11-25T02:37:47.856Z,90.65
2018-11-25T02:42:50.435Z,90.47
2018-11-25T02:47:53.905Z,90.60
2018-11-25T02:53:12.478Z,91.14
2018-11-25T02:58:14.859Z,90.95
2018-11-25T03:03:17.199Z,91.06
2018-11-25T03:08:19.561Z,91.52
2018-11-25T03:13:21.916Z,91.07
2018-11-25T03:18:24.363Z,91.00
2018-11-25T03:23:26.720Z,90.94
2018-11-25T03:28:29.077Z,90.30
2018-11-25T03:33:31.465Z,90.13
2018-11-25T03:38:33.803Z,90.25
2018-11-25T03:43:36.168Z,90.33
2018-11-25T03:48:39.802Z,89.89
2018-11-25T03:53:42.134Z,90.68
2018-11-25T03:58:44.668Z,90.52
2018-11-25T04:03:47.007Z,89.60
2018-11-25T04:08:49.519Z,90.11
2018-11-25T04:13:51.859Z,89.84
2018-11-25T04:18:54.252Z,89.83
2018-11-25T04:23:56.760Z,89.79
2018-11-25T04:28:59.133Z,89.77
2018-11-25T04:34:01.600Z,89.84
2018-11-25T04:39:07.441Z,89.86
2018-11-25T04:44:09.813Z,89.79
2018-11-25T04:49:12.264Z,89.35
2018-11-25T04:54:14.567Z,89.34
2018-11-25T04:59:16.874Z,89.36
2018-11-25T05:04:19.370Z,88.71
2018-11-25T05:09:21.663Z,89.15
2018-11-25T05:14:23.976Z,89.01
2018-11-25T05:19:26.440Z,89.65
2018-11-25T05:24:29.039Z,89.35
2018-11-25T05:29:31.328Z,89.32
2018-11-25T05:34:33.684Z,89.99
2018-11-25T05:39:36.083Z,90.00
2018-11-25T05:44:38.347Z,89.55
2018-11-25T05:49:40.689Z,89.09
2018-11-25T05:54:42.966Z,87.93
2018-11-25T05:59:45.240Z,88.24
2018-11-25T06:04:47.519Z,88.60
2018-11-25T06:09:49.795Z,88.81
2018-11-25T06:14:52.060Z,89.39
2018-11-25T06:19:54.404Z,89.19
2018-11-25T06:24:56.713Z,89.86
2018-11-25T06:29:58.988Z,89.47
2018-11-25T06:35:01.304Z,90.20
2018-11-25T06:40:06.114Z,89.89
2018-11-25T06:45:12.903Z,90.01
2018-11-25T06:50:15.431Z,90.13
2018-11-25T06:55:17.737Z,90.34
2018-11-25T07:00:22.542Z,90.43
2018-11-25T07:05:24.825Z,90.15
2018-11-25T07:10:27.152Z,90.63
2018-11-25T07:15:29.598Z,90.34
2018-11-25T07:20:32.171Z,90.90
2018-11-25T07:25:34.714Z,90.24
2018-11-25T07:30:37.532Z,89.31
2018-11-25T07:35:39.804Z,89.45
2018-11-25T07:40:42.105Z,89.16
2018-11-25T07:45:44.374Z,88.57
2018-11-25T07:50:46.878Z,88.67
2018-11-25T07:55:49.426Z,88.29
2018-11-25T08:00:51.695Z,88.44
2018-11-25T08:05:54.174Z,88.62
2018-11-25T08:10:56.540Z,87.76
2018-11-25T08:15:58.824Z,88.25
2018-11-25T08:21:01.227Z,88.80
2018-11-25T08:26:03.734Z,88.46
2018-11-25T08:31:06.123Z,88.42
2018-11-25T08:36:08.430Z,87.98
2018-11-25T08:41:10.716Z,87.89
2018-11-25T08:46:13.060Z,88.22
2018-11-25T08:51:15.436Z,85.67
2018-11-25T09:01:32.700Z,86.12
2018-11-25T09:06:34.975Z,84.72
2018-11-25T09:11:37.251Z,85.79
2018-11-25T09:16:39.546Z,84.98
2018-11-25T09:21:42.434Z,85.53
2018-11-25T09:26:44.690Z,84.84
2018-11-25T09:31:47.030Z,84.10
2018-11-25T09:36:50.340Z,83.99
2018-11-25T09:41:52.759Z,84.27
2018-11-25T09:46:55.392Z,84.26
2018-11-25T09:51:57.965Z,84.52
2018-11-25T09:57:00.342Z,83.54
2018-11-25T10:02:02.670Z,83.01
2018-11-25T10:07:05.138Z,82.00
2018-11-25T10:12:08.536Z,80.21
2018-11-25T10:17:10.948Z,80.88
2018-11-25T10:22:13.515Z,81.42
2018-11-25T10:27:15.915Z,81.62
2018-11-25T10:32:18.775Z,81.51
2018-11-25T10:37:21.175Z,81.57
2018-11-25T10:42:23.576Z,81.30
2018-11-25T10:47:25.949Z,81.55
2018-11-25T10:52:28.668Z,81.56
2018-11-25T10:57:30.972Z,80.28
2018-11-25T11:02:39.111Z,81.36
2018-11-25T11:07:44.756Z,80.72
2018-11-25T11:12:47.085Z,80.42
2018-11-25T11:17:49.499Z,81.12
2018-11-25T11:22:51.987Z,80.59
2018-11-25T11:27:54.384Z,81.15
2018-11-25T11:32:56.797Z,80.53
2018-11-25T11:37:59.799Z,80.37
2018-11-25T11:43:02.852Z,81.03
2018-11-25T11:48:06.012Z,80.45
2018-11-25T11:53:08.512Z,80.85
2018-11-25T11:58:10.935Z,80.69
2018-11-25T12:03:13.238Z,80.77
2018-11-25T12:08:15.653Z,79.58
2018-11-25T12:13:18.603Z,79.40
2018-11-25T12:18:21.026Z,79.00
2018-11-25T12:23:23.432Z,79.21
2018-11-25T12:28:25.738Z,78.13
2018-11-25T12:33:28.083Z,78.69
2018-11-25T12:38:30.395Z,79.25
2018-11-25T12:43:33.115Z,79.93
2018-11-25T12:48:35.420Z,80.73
2018-11-25T12:53:37.853Z,81.10
2018-11-25T12:58:40.213Z,81.22
2018-11-25T13:03:42.630Z,81.13
2018-11-25T13:08:44.940Z,80.69
2018-11-25T13:13:47.326Z,81.02
2018-11-25T13:18:49.762Z,80.69
2018-11-25T13:23:52.147Z,80.97
2018-11-25T13:28:54.592Z,80.55
2018-11-25T13:33:57.119Z,81.13
2018-11-25T13:38:59.579Z,81.15
2018-11-25T13:44:01.896Z,80.87
2018-11-25T13:49:04.345Z,80.50
2018-11-25T13:54:06.912Z,81.07
2018-11-25T13:59:09.227Z,81.34
2018-11-25T14:04:11.564Z,81.33
2018-11-25T14:09:14.902Z,82.35
2018-11-25T14:14:17.205Z,82.38
2018-11-25T14:19:19.539Z,82.81
2018-11-25T14:24:22.248Z,82.94
2018-11-25T14:29:24.900Z,83.43
2018-11-25T14:34:27.231Z,83.91
2018-11-25T14:39:29.576Z,84.04
2018-11-25T14:44:31.900Z,84.25
2018-11-25T14:49:34.237Z,84.50
2018-11-25T14:54:36.616Z,84.62
2018-11-25T14:59:39.108Z,84.79
2018-11-25T15:04:41.844Z,85.46
2018-11-25T15:09:44.146Z,86.41
2018-11-25T15:14:46.480Z,86.02
2018-11-25T15:19:49.775Z,86.92
2018-11-25T15:24:52.139Z,87.22
2018-11-25T15:29:54.800Z,87.40
2018-11-25T15:34:57.137Z,87.97
2018-11-25T15:39:59.491Z,87.76
2018-11-25T15:45:01.856Z,87.78
2018-11-25T15:50:07.549Z,88.31
2018-11-25T15:55:12.390Z,87.86
2018-11-25T16:00:16.982Z,88.24
2018-11-25T16:05:22.807Z,88.46
2018-11-25T16:10:25.175Z,88.65
2018-11-25T16:15:28.233Z,88.63
2018-11-25T16:20:30.727Z,88.69
2018-11-25T16:25:34.904Z,88.98
2018-11-25T16:30:37.412Z,88.75
2018-11-25T16:35:39.748Z,88.93
2018-11-25T16:40:42.304Z,89.03
2018-11-25T16:45:44.679Z,88.83
2018-11-25T16:50:47.214Z,88.41
2018-11-25T16:55:50.031Z,89.20
2018-11-25T17:00:53.374Z,89.06
2018-11-25T17:05:56.394Z,89.36
2018-11-25T17:10:59.453Z,88.99
2018-11-25T17:16:01.871Z,89.11
2018-11-25T17:21:04.301Z,89.68
2018-11-25T17:26:06.694Z,89.91
2018-11-25T17:31:09.096Z,89.70
2018-11-25T17:36:11.404Z,90.00
2018-11-25T17:41:13.901Z,90.28
2018-11-25T17:46:16.211Z,90.36
2018-11-25T17:51:18.564Z,90.84
2018-11-25T17:56:21.491Z,90.82
2018-11-25T18:01:23.875Z,90.97
2018-11-25T18:06:26.269Z,91.60
2018-11-25T18:11:29.073Z,92.39
2018-11-25T18:16:31.452Z,92.42
2018-11-25T18:21:34.036Z,92.87
2018-11-25T18:26:36.623Z,92.37
2018-11-25T18:31:40.453Z,93.08
2018-11-25T18:36:42.752Z,92.97
2018-11-25T18:41:45.055Z,92.91
2018-11-25T18:46:48.539Z,93.24
2018-11-25T18:51:50.847Z,92.96
2018-11-25T18:56:53.180Z,93.32
2018-11-25T19:01:59.474Z,93.25
2018-11-25T19:07:02.073Z,93.94
2018-11-25T19:12:04.612Z,93.46
2018-11-25T19:17:06.944Z,93.18
2018-11-25T19:22:09.227Z,93.71
2018-11-25T19:27:11.615Z,93.99
2018-11-25T19:32:14.068Z,93.55
2018-11-25T19:37:16.428Z,93.75
2018-11-25T19:42:18.717Z,94.28
2018-11-25T19:47:21.050Z,94.45
2018-11-25T19:52:23.372Z,94.17
2018-11-25T19:57:25.861Z,94.01
2018-11-25T20:02:28.175Z,94.25
2018-11-25T20:07:30.539Z,94.79
2018-11-25T20:12:39.064Z,94.22
2018-11-25T20:17:41.423Z,93.95
2018-11-25T20:22:44.276Z,93.81
2018-11-25T20:27:48.423Z,93.97
2018-11-25T20:32:56.442Z,93.91
2018-11-25T20:38:05.464Z,93.96
2018-11-25T20:43:07.855Z,92.92
2018-11-25T20:48:10.287Z,93.03
2018-11-25T20:53:18.320Z,93.16
2018-11-25T20:58:20.643Z,93.19
2018-11-25T21:03:23.105Z,93.72
2018-11-25T21:08:27.433Z,93.67
2018-11-25T21:13:27.810Z,94.42
2018-11-25T21:18:30.104Z,94.67
2018-11-25T21:23:32.425Z,94.57
2018-11-25T21:28:34.766Z,94.52
2018-11-25T21:33:37.221Z,94.20
2018-11-25T21:38:39.553Z,94.66
2018-11-25T21:43:41.932Z,94.35
2018-11-25T21:48:44.217Z,94.70
2018-11-25T21:53:46.469Z,94.19
2018-11-25T21:58:48.912Z,94.49
2018-11-25T22:03:51.300Z,94.13
2018-11-25T22:08:53.579Z,93.76
2018-11-25T22:13:55.858Z,92.85
2018-11-25T22:18:58.135Z,92.88
2018-11-25T22:24:00.421Z,92.90
2018-11-25T22:29:02.852Z,93.01
2018-11-25T22:34:05.458Z,92.73
2018-11-25T22:39:08.856Z,93.15
2018-11-25T22:44:11.229Z,93.01
2018-11-25T22:49:13.491Z,93.14
2018-11-25T22:54:15.874Z,93.28
2018-11-25T22:59:18.219Z,93.25
2018-11-25T23:04:32.012Z,94.14
2018-11-25T23:09:34.311Z,94.33
2018-11-25T23:14:36.575Z,94.67
2018-11-25T23:19:38.857Z,95.39
2018-11-25T23:24:41.326Z,95.55
2018-11-25T23:29:43.643Z,96.11
2018-11-25T23:34:45.957Z,95.97
2018-11-25T23:39:48.272Z,96.53
2018-11-25T23:44:50.595Z,96.74
2018-11-25T23:49:52.984Z,97.13
2018-11-25T23:54:55.273Z,96.83
2018-11-25T23:59:57.615Z,96.92
